This is the latest recevied weather packets stored in our database for station/object KI6SYE. If no packets are shown the sender has not sent any weather packets the latest 10 day(s).
| Time | Temp. | Humidity | Pressure | Rain* | Wind** | Luminosity | Snow |
|---|---|---|---|---|---|---|---|
| 1777670886 | 18.89° C | 77% | 1013.4 hPa | 0 mm | - | 688 W/m² | - |
| 1777670582 | 19.44° C | 75% | 1013.3 hPa | 0 mm | - | 698 W/m² | - |
| 1777670280 | 18.89° C | 76% | 1013.1 hPa | 0 mm | - | 707 W/m² | - |
| 1777669977 | 18.33° C | 78% | 1013.2 hPa | 0 mm | - | 716 W/m² | - |
| 1777669674 | 18.89° C | 77% | 1013.3 hPa | 0 mm | - | 721 W/m² | - |
| 1777669370 | 18.89° C | 77% | 1013.5 hPa | 0 mm | - | 732 W/m² | - |
| 1777669066 | 18.89° C | 76% | 1013.5 hPa | 0 mm | - | 738 W/m² | - |
| 1777668764 | 18.89° C | 76% | 1013.6 hPa | 0 mm | - | 745 W/m² | - |
| 1777668460 | 18.89° C | 76% | 1013.8 hPa | 0 mm | - | 751 W/m² | - |
| 1777668157 | 18.33° C | 77% | 1013.5 hPa | 0 mm | - | 757 W/m² | - |
| 1777667853 | 18.33° C | 78% | 1013.5 hPa | 0 mm | - | 762 W/m² | - |
| 1777667551 | 18.89° C | 76% | 1013.6 hPa | 0 mm | - | 766 W/m² | - |
| 1777667248 | 18.33° C | 79% | 1013.7 hPa | 0 mm | - | 769 W/m² | - |
| 1777666945 | 18.33° C | 78% | 1013.5 hPa | 0 mm | - | 775 W/m² | - |
| 1777666641 | 18.89° C | 77% | 1013.6 hPa | 0 mm | - | 780 W/m² | - |
| 1777666338 | 18.89° C | 77% | 1013.7 hPa | 0 mm | - | 785 W/m² | - |
| 1777666035 | 18.33° C | 78% | 1013.9 hPa | 0 mm | - | 786 W/m² | - |
| 1777665732 | 18.33° C | 78% | 1013.8 hPa | 0 mm | - | 789 W/m² | - |
| 1777665430 | 18.33° C | 78% | 1014 hPa | 0 mm | - | 789 W/m² | - |
| 1777665126 | 18.89° C | 78% | 1014 hPa | 0 mm | - | 790 W/m² | - |
| 1777664822 | 18.89° C | 77% | 1014 hPa | 0 mm | - | 790 W/m² | - |
| 1777664517 | 18.89° C | 78% | 1014 hPa | 0 mm | - | 790 W/m² | - |
| 1777664214 | 19.44° C | 75% | 1013.8 hPa | 0 mm | - | 790 W/m² | - |
| 1777663913 | 18.33° C | 79% | 1013.9 hPa | 0 mm | - | 790 W/m² | - |
| 1777663609 | 18.89° C | 78% | 1013.9 hPa | 0 mm | - | 790 W/m² | - |
* Rain latest hour (hover to see other rain measurements)
** Current wind speed in m/s (hover to see current wind gust speed)